sensor_id;sensor_type;location;lat;lon;timestamp;temperature;humidity
23347;DHT22;36852;45.466;11.066;2022-10-23T00:01:38;20.00;99.90
23347;DHT22;36852;45.466;11.066;2022-10-23T00:04:12;20.00;99.90
23347;DHT22;36852;45.466;11.066;2022-10-23T00:06:37;20.00;99.90
23347;DHT22;36852;45.466;11.066;2022-10-23T00:09:11;20.00;99.90
23347;DHT22;36852;45.466;11.066;2022-10-23T00:11:39;20.00;99.90
23347;DHT22;36852;45.466;11.066;2022-10-23T00:14:08;20.00;99.90
23347;DHT22;36852;45.466;11.066;2022-10-23T00:16:36;20.00;99.90
23347;DHT22;36852;45.466;11.066;2022-10-23T00:19:06;20.00;99.90
23347;DHT22;36852;45.466;11.066;2022-10-23T00:21:34;20.00;99.90
23347;DHT22;36852;45.466;11.066;2022-10-23T00:24:02;20.00;99.90
23347;DHT22;36852;45.466;11.066;2022-10-23T00:26:31;20.00;99.90
23347;DHT22;36852;45.466;11.066;2022-10-23T00:28:59;19.90;99.90
23347;DHT22;36852;45.466;11.066;2022-10-23T00:31:27;19.90;99.90
23347;DHT22;36852;45.466;11.066;2022-10-23T00:33:55;19.90;99.90
23347;DHT22;36852;45.466;11.066;2022-10-23T00:36:23;19.90;99.90
23347;DHT22;36852;45.466;11.066;2022-10-23T00:38:51;19.90;99.90
23347;DHT22;36852;45.466;11.066;2022-10-23T00:41:21;19.90;99.90
23347;DHT22;36852;45.466;11.066;2022-10-23T00:44:06;19.90;99.90
23347;DHT22;36852;45.466;11.066;2022-10-23T00:46:35;19.90;99.90
23347;DHT22;36852;45.466;11.066;2022-10-23T00:49:04;19.80;99.90
23347;DHT22;36852;45.466;11.066;2022-10-23T00:51:45;19.90;99.90
23347;DHT22;36852;45.466;11.066;2022-10-23T00:54:15;19.80;99.90
23347;DHT22;36852;45.466;11.066;2022-10-23T00:56:46;19.80;99.90
23347;DHT22;36852;45.466;11.066;2022-10-23T00:59:15;19.80;99.90
23347;DHT22;36852;45.466;11.066;2022-10-23T01:01:43;19.80;99.90
23347;DHT22;36852;45.466;11.066;2022-10-23T01:04:14;19.80;99.90
23347;DHT22;36852;45.466;11.066;2022-10-23T01:07:13;19.80;99.90
23347;DHT22;36852;45.466;11.066;2022-10-23T01:09:53;19.80;99.90
23347;DHT22;36852;45.466;11.066;2022-10-23T01:12:28;19.80;99.90
23347;DHT22;36852;45.466;11.066;2022-10-23T01:15:15;19.80;99.90
23347;DHT22;36852;45.466;11.066;2022-10-23T01:18:04;19.80;99.90
23347;DHT22;36852;45.466;11.066;2022-10-23T01:20:44;19.80;99.90
23347;DHT22;36852;45.466;11.066;2022-10-23T01:26:14;19.70;99.90
23347;DHT22;36852;45.466;11.066;2022-10-23T01:28:52;19.80;99.90
23347;DHT22;36852;45.466;11.066;2022-10-23T01:31:32;19.70;99.90
23347;DHT22;36852;45.466;11.066;2022-10-23T01:34:04;19.70;99.90
23347;DHT22;36852;45.466;11.066;2022-10-23T01:36:31;19.80;99.90
23347;DHT22;36852;45.466;11.066;2022-10-23T01:39:06;19.70;99.90
23347;DHT22;36852;45.466;11.066;2022-10-23T01:41:47;19.70;99.90
23347;DHT22;36852;45.466;11.066;2022-10-23T01:44:35;19.70;99.90
23347;DHT22;36852;45.466;11.066;2022-10-23T01:47:06;19.70;99.90
23347;DHT22;36852;45.466;11.066;2022-10-23T01:49:37;19.70;99.90
23347;DHT22;36852;45.466;11.066;2022-10-23T01:52:11;19.70;99.90
23347;DHT22;36852;45.466;11.066;2022-10-23T01:54:43;19.70;99.90
23347;DHT22;36852;45.466;11.066;2022-10-23T01:57:16;19.70;99.90
23347;DHT22;36852;45.466;11.066;2022-10-23T01:59:54;19.70;99.90
23347;DHT22;36852;45.466;11.066;2022-10-23T02:02:23;19.70;99.90
23347;DHT22;36852;45.466;11.066;2022-10-23T02:05:01;19.60;99.90
23347;DHT22;36852;45.466;11.066;2022-10-23T02:07:29;19.60;99.90
23347;DHT22;36852;45.466;11.066;2022-10-23T02:09:57;19.60;99.90
23347;DHT22;36852;45.466;11.066;2022-10-23T02:12:43;19.70;99.90
23347;DHT22;36852;45.466;11.066;2022-10-23T02:15:17;19.70;99.90
23347;DHT22;36852;45.466;11.066;2022-10-23T02:23:00;19.60;99.90
23347;DHT22;36852;45.466;11.066;2022-10-23T02:25:35;19.60;99.90
23347;DHT22;36852;45.466;11.066;2022-10-23T02:28:06;19.60;99.90
23347;DHT22;36852;45.466;11.066;2022-10-23T02:30:34;19.60;99.90
23347;DHT22;36852;45.466;11.066;2022-10-23T02:33:06;19.60;99.90
23347;DHT22;36852;45.466;11.066;2022-10-23T02:35:35;19.60;99.90
23347;DHT22;36852;45.466;11.066;2022-10-23T02:41:07;19.60;99.90
23347;DHT22;36852;45.466;11.066;2022-10-23T02:43:46;19.60;99.90
23347;DHT22;36852;45.466;11.066;2022-10-23T02:46:19;19.60;99.90
23347;DHT22;36852;45.466;11.066;2022-10-23T02:48:55;19.60;99.90
23347;DHT22;36852;45.466;11.066;2022-10-23T02:51:36;19.60;99.90
23347;DHT22;36852;45.466;11.066;2022-10-23T02:56:43;19.60;99.90
23347;DHT22;36852;45.466;11.066;2022-10-23T02:59:22;19.60;99.90
23347;DHT22;36852;45.466;11.066;2022-10-23T03:01:52;19.60;99.90
23347;DHT22;36852;45.466;11.066;2022-10-23T03:04:21;19.60;99.90
23347;DHT22;36852;45.466;11.066;2022-10-23T03:06:50;19.50;99.90
23347;DHT22;36852;45.466;11.066;2022-10-23T03:09:18;19.50;99.90
23347;DHT22;36852;45.466;11.066;2022-10-23T03:11:45;19.50;99.90
23347;DHT22;36852;45.466;11.066;2022-10-23T03:14:14;19.50;99.90
23347;DHT22;36852;45.466;11.066;2022-10-23T03:16:41;19.50;99.90
23347;DHT22;36852;45.466;11.066;2022-10-23T03:19:10;19.50;99.90
23347;DHT22;36852;45.466;11.066;2022-10-23T03:21:39;19.50;99.90
23347;DHT22;36852;45.466;11.066;2022-10-23T03:24:07;19.50;99.90
23347;DHT22;36852;45.466;11.066;2022-10-23T03:26:37;19.50;99.90
23347;DHT22;36852;45.466;11.066;2022-10-23T03:29:04;19.60;99.90
23347;DHT22;36852;45.466;11.066;2022-10-23T03:31:34;19.50;99.90
23347;DHT22;36852;45.466;11.066;2022-10-23T03:34:02;19.60;99.90
23347;DHT22;36852;45.466;11.066;2022-10-23T03:36:34;19.60;99.90
23347;DHT22;36852;45.466;11.066;2022-10-23T03:39:02;19.50;99.90
23347;DHT22;36852;45.466;11.066;2022-10-23T03:41:31;19.50;99.90
23347;DHT22;36852;45.466;11.066;2022-10-23T03:43:58;19.50;99.90
23347;DHT22;36852;45.466;11.066;2022-10-23T03:46:28;19.60;99.90
23347;DHT22;36852;45.466;11.066;2022-10-23T03:48:55;19.60;99.90
23347;DHT22;36852;45.466;11.066;2022-10-23T03:51:25;19.50;99.90
23347;DHT22;36852;45.466;11.066;2022-10-23T03:53:53;19.60;99.90
23347;DHT22;36852;45.466;11.066;2022-10-23T03:56:21;19.60;99.90
23347;DHT22;36852;45.466;11.066;2022-10-23T03:58:48;19.50;99.90
23347;DHT22;36852;45.466;11.066;2022-10-23T04:01:16;19.50;99.90
23347;DHT22;36852;45.466;11.066;2022-10-23T04:06:34;19.50;99.90
23347;DHT22;36852;45.466;11.066;2022-10-23T04:09:03;19.50;99.90
23347;DHT22;36852;45.466;11.066;2022-10-23T04:11:31;19.50;99.90
23347;DHT22;36852;45.466;11.066;2022-10-23T04:13:59;19.50;99.90
23347;DHT22;36852;45.466;11.066;2022-10-23T04:16:27;19.60;99.90
23347;DHT22;36852;45.466;11.066;2022-10-23T04:18:55;19.60;99.90
23347;DHT22;36852;45.466;11.066;2022-10-23T04:21:22;19.60;99.90
23347;DHT22;36852;45.466;11.066;2022-10-23T04:23:50;19.60;99.90
23347;DHT22;36852;45.466;11.066;2022-10-23T04:26:18;19.50;99.90
23347;DHT22;36852;45.466;11.066;2022-10-23T04:28:45;19.50;99.90
23347;DHT22;36852;45.466;11.066;2022-10-23T04:31:14;19.50;99.90
23347;DHT22;36852;45.466;11.066;2022-10-23T04:33:42;19.60;99.90
23347;DHT22;36852;45.466;11.066;2022-10-23T04:36:12;19.60;99.90
23347;DHT22;36852;45.466;11.066;2022-10-23T04:38:40;19.60;99.90
23347;DHT22;36852;45.466;11.066;2022-10-23T04:41:09;19.60;99.90
23347;DHT22;36852;45.466;11.066;2022-10-23T04:43:37;19.60;99.90
23347;DHT22;36852;45.466;11.066;2022-10-23T04:46:07;19.60;99.90
23347;DHT22;36852;45.466;11.066;2022-10-23T04:48:35;19.60;99.90
23347;DHT22;36852;45.466;11.066;2022-10-23T04:51:10;19.60;99.90
23347;DHT22;36852;45.466;11.066;2022-10-23T04:53:52;19.60;99.90
23347;DHT22;36852;45.466;11.066;2022-10-23T04:56:28;19.60;99.90
23347;DHT22;36852;45.466;11.066;2022-10-23T04:58:57;19.60;99.90
23347;DHT22;36852;45.466;11.066;2022-10-23T05:01:29;19.60;99.90
23347;DHT22;36852;45.466;11.066;2022-10-23T05:03:57;19.60;99.90
23347;DHT22;36852;45.466;11.066;2022-10-23T05:06:25;19.60;99.90
23347;DHT22;36852;45.466;11.066;2022-10-23T05:09:01;19.60;99.90
23347;DHT22;36852;45.466;11.066;2022-10-23T05:11:33;19.60;99.90
23347;DHT22;36852;45.466;11.066;2022-10-23T05:14:03;19.60;99.90
23347;DHT22;36852;45.466;11.066;2022-10-23T05:16:43;19.60;99.90
23347;DHT22;36852;45.466;11.066;2022-10-23T05:19:14;19.60;99.90
23347;DHT22;36852;45.466;11.066;2022-10-23T05:21:46;19.60;99.90
23347;DHT22;36852;45.466;11.066;2022-10-23T05:24:18;19.50;99.90
23347;DHT22;36852;45.466;11.066;2022-10-23T05:26:47;19.50;99.90
23347;DHT22;36852;45.466;11.066;2022-10-23T05:29:19;19.50;99.90
23347;DHT22;36852;45.466;11.066;2022-10-23T05:31:52;19.50;99.90
23347;DHT22;36852;45.466;11.066;2022-10-23T05:34:22;19.40;99.90
23347;DHT22;36852;45.466;11.066;2022-10-23T05:36:50;19.40;99.90
23347;DHT22;36852;45.466;11.066;2022-10-23T05:39:21;19.40;99.90
23347;DHT22;36852;45.466;11.066;2022-10-23T05:41:51;19.40;99.90
23347;DHT22;36852;45.466;11.066;2022-10-23T05:44:23;19.40;99.90
23347;DHT22;36852;45.466;11.066;2022-10-23T05:46:58;19.40;99.90
23347;DHT22;36852;45.466;11.066;2022-10-23T05:49:46;19.40;99.90
23347;DHT22;36852;45.466;11.066;2022-10-23T05:52:18;19.30;99.90
23347;DHT22;36852;45.466;11.066;2022-10-23T05:54:53;19.30;99.90
23347;DHT22;36852;45.466;11.066;2022-10-23T05:57:38;19.30;99.90
23347;DHT22;36852;45.466;11.066;2022-10-23T06:00:10;19.30;99.90
23347;DHT22;36852;45.466;11.066;2022-10-23T06:02:41;19.30;99.90
23347;DHT22;36852;45.466;11.066;2022-10-23T06:05:23;19.30;99.90
23347;DHT22;36852;45.466;11.066;2022-10-23T06:08:12;19.30;99.90
23347;DHT22;36852;45.466;11.066;2022-10-23T06:10:40;19.30;99.90
23347;DHT22;36852;45.466;11.066;2022-10-23T06:13:09;19.20;99.90
23347;DHT22;36852;45.466;11.066;2022-10-23T06:15:36;19.20;99.90
23347;DHT22;36852;45.466;11.066;2022-10-23T06:18:12;19.20;99.90
23347;DHT22;36852;45.466;11.066;2022-10-23T06:20:41;19.20;99.90
23347;DHT22;36852;45.466;11.066;2022-10-23T06:23:11;19.20;99.90
23347;DHT22;36852;45.466;11.066;2022-10-23T06:25:58;19.20;99.90
23347;DHT22;36852;45.466;11.066;2022-10-23T06:28:28;19.20;99.90
23347;DHT22;36852;45.466;11.066;2022-10-23T06:30:56;19.20;99.90
23347;DHT22;36852;45.466;11.066;2022-10-23T06:33:25;19.30;99.90
23347;DHT22;36852;45.466;11.066;2022-10-23T06:35:55;19.30;99.90
23347;DHT22;36852;45.466;11.066;2022-10-23T06:38:23;19.30;99.90
23347;DHT22;36852;45.466;11.066;2022-10-23T06:40:53;19.30;99.90
23347;DHT22;36852;45.466;11.066;2022-10-23T06:43:28;19.40;99.90
23347;DHT22;36852;45.466;11.066;2022-10-23T06:46:02;19.40;99.90
23347;DHT22;36852;45.466;11.066;2022-10-23T06:48:49;19.40;99.90
23347;DHT22;36852;45.466;11.066;2022-10-23T06:51:18;19.40;99.90
23347;DHT22;36852;45.466;11.066;2022-10-23T06:53:47;19.40;99.90
23347;DHT22;36852;45.466;11.066;2022-10-23T06:56:33;19.40;99.90
23347;DHT22;36852;45.466;11.066;2022-10-23T06:59:03;19.40;99.90
23347;DHT22;36852;45.466;11.066;2022-10-23T07:01:33;19.50;99.90
23347;DHT22;36852;45.466;11.066;2022-10-23T07:04:02;19.50;99.90
23347;DHT22;36852;45.466;11.066;2022-10-23T07:06:30;19.60;99.90
23347;DHT22;36852;45.466;11.066;2022-10-23T07:08:58;19.60;99.90
23347;DHT22;36852;45.466;11.066;2022-10-23T07:11:37;19.60;99.90
23347;DHT22;36852;45.466;11.066;2022-10-23T07:14:06;19.60;99.90
23347;DHT22;36852;45.466;11.066;2022-10-23T07:16:34;19.60;99.90
23347;DHT22;36852;45.466;11.066;2022-10-23T07:19:02;19.70;99.90
23347;DHT22;36852;45.466;11.066;2022-10-23T07:21:33;19.80;99.90
23347;DHT22;36852;45.466;11.066;2022-10-23T07:24:03;19.80;99.90
23347;DHT22;36852;45.466;11.066;2022-10-23T07:26:32;19.80;99.90
23347;DHT22;36852;45.466;11.066;2022-10-23T07:29:00;19.90;99.90
23347;DHT22;36852;45.466;11.066;2022-10-23T07:31:29;19.90;99.90
23347;DHT22;36852;45.466;11.066;2022-10-23T07:34:18;19.90;99.90
23347;DHT22;36852;45.466;11.066;2022-10-23T07:36:46;20.00;99.90
23347;DHT22;36852;45.466;11.066;2022-10-23T07:39:14;20.00;99.90
23347;DHT22;36852;45.466;11.066;2022-10-23T07:41:44;20.10;99.90
23347;DHT22;36852;45.466;11.066;2022-10-23T07:44:12;20.10;99.90
23347;DHT22;36852;45.466;11.066;2022-10-23T07:46:40;20.20;99.90
23347;DHT22;36852;45.466;11.066;2022-10-23T07:49:09;20.20;99.90
23347;DHT22;36852;45.466;11.066;2022-10-23T07:51:38;20.30;99.90
23347;DHT22;36852;45.466;11.066;2022-10-23T07:54:07;20.30;99.90
23347;DHT22;36852;45.466;11.066;2022-10-23T07:56:54;20.40;99.90
23347;DHT22;36852;45.466;11.066;2022-10-23T07:59:42;20.50;99.90
23347;DHT22;36852;45.466;11.066;2022-10-23T08:02:11;20.60;99.90
23347;DHT22;36852;45.466;11.066;2022-10-23T08:04:40;20.70;99.90
23347;DHT22;36852;45.466;11.066;2022-10-23T08:07:13;20.70;99.90
23347;DHT22;36852;45.466;11.066;2022-10-23T08:09:42;20.80;99.90
23347;DHT22;36852;45.466;11.066;2022-10-23T08:12:10;21.00;99.90
23347;DHT22;36852;45.466;11.066;2022-10-23T08:14:43;21.00;99.90
23347;DHT22;36852;45.466;11.066;2022-10-23T08:17:11;21.10;99.90
23347;DHT22;36852;45.466;11.066;2022-10-23T08:19:58;21.20;99.90
23347;DHT22;36852;45.466;11.066;2022-10-23T08:22:27;21.30;99.90
23347;DHT22;36852;45.466;11.066;2022-10-23T08:24:55;21.30;99.90
23347;DHT22;36852;45.466;11.066;2022-10-23T08:27:23;21.40;99.90
23347;DHT22;36852;45.466;11.066;2022-10-23T08:29:51;21.40;99.90
23347;DHT22;36852;45.466;11.066;2022-10-23T08:32:19;21.40;99.90
23347;DHT22;36852;45.466;11.066;2022-10-23T08:35:05;21.40;99.90
23347;DHT22;36852;45.466;11.066;2022-10-23T08:37:33;21.40;99.90
23347;DHT22;36852;45.466;11.066;2022-10-23T08:40:01;21.50;99.90
23347;DHT22;36852;45.466;11.066;2022-10-23T08:45:48;21.50;99.90
23347;DHT22;36852;45.466;11.066;2022-10-23T08:51:28;21.50;99.90
23347;DHT22;36852;45.466;11.066;2022-10-23T08:54:10;21.50;99.90
23347;DHT22;36852;45.466;11.066;2022-10-23T08:56:38;21.60;99.90
23347;DHT22;36852;45.466;11.066;2022-10-23T08:59:20;21.60;99.90
23347;DHT22;36852;45.466;11.066;2022-10-23T09:02:01;21.60;99.90
23347;DHT22;36852;45.466;11.066;2022-10-23T09:04:30;21.70;99.90
23347;DHT22;36852;45.466;11.066;2022-10-23T09:07:46;21.70;99.90
23347;DHT22;36852;45.466;11.066;2022-10-23T09:12:11;21.80;99.90
23347;DHT22;36852;45.466;11.066;2022-10-23T09:17:38;21.80;99.90
23347;DHT22;36852;45.466;11.066;2022-10-23T09:20:25;21.90;99.90
23347;DHT22;36852;45.466;11.066;2022-10-23T09:22:58;21.90;99.90
23347;DHT22;36852;45.466;11.066;2022-10-23T09:25:30;21.90;99.90
23347;DHT22;36852;45.466;11.066;2022-10-23T09:27:59;22.00;99.90
23347;DHT22;36852;45.466;11.066;2022-10-23T09:30:38;22.00;99.90
23347;DHT22;36852;45.466;11.066;2022-10-23T09:33:26;22.10;99.90
23347;DHT22;36852;45.466;11.066;2022-10-23T09:38:36;22.20;99.90
23347;DHT22;36852;45.466;11.066;2022-10-23T09:41:15;22.30;99.90
23347;DHT22;36852;45.466;11.066;2022-10-23T09:43:46;22.40;99.90
23347;DHT22;36852;45.466;11.066;2022-10-23T09:46:16;22.40;99.90
23347;DHT22;36852;45.466;11.066;2022-10-23T09:48:44;22.50;99.90
23347;DHT22;36852;45.466;11.066;2022-10-23T09:51:19;22.50;99.90
23347;DHT22;36852;45.466;11.066;2022-10-23T09:53:56;22.60;99.90
23347;DHT22;36852;45.466;11.066;2022-10-23T09:56:32;22.70;99.90
23347;DHT22;36852;45.466;11.066;2022-10-23T09:59:03;22.80;99.90
23347;DHT22;36852;45.466;11.066;2022-10-23T10:01:34;22.80;99.90
23347;DHT22;36852;45.466;11.066;2022-10-23T10:04:37;22.80;99.90
23347;DHT22;36852;45.466;11.066;2022-10-23T10:07:51;22.90;99.90
23347;DHT22;36852;45.466;11.066;2022-10-23T10:09:40;23.00;99.90
23347;DHT22;36852;45.466;11.066;2022-10-23T10:12:30;23.10;99.90
23347;DHT22;36852;45.466;11.066;2022-10-23T10:15:10;23.10;99.90
23347;DHT22;36852;45.466;11.066;2022-10-23T10:26:43;23.10;99.90
23347;DHT22;36852;45.466;11.066;2022-10-23T10:34:55;23.10;99.90
23347;DHT22;36852;45.466;11.066;2022-10-23T10:37:55;23.10;99.90
23347;DHT22;36852;45.466;11.066;2022-10-23T10:40:34;23.10;99.90
23347;DHT22;36852;45.466;11.066;2022-10-23T10:46:37;23.30;99.90
23347;DHT22;36852;45.466;11.066;2022-10-23T10:55:13;23.40;99.90
23347;DHT22;36852;45.466;11.066;2022-10-23T10:58:00;23.40;99.90
23347;DHT22;36852;45.466;11.066;2022-10-23T11:00:27;23.50;99.90
23347;DHT22;36852;45.466;11.066;2022-10-23T11:03:08;23.50;99.90
23347;DHT22;36852;45.466;11.066;2022-10-23T11:05:42;23.60;99.90
23347;DHT22;36852;45.466;11.066;2022-10-23T11:08:17;23.70;99.90
23347;DHT22;36852;45.466;11.066;2022-10-23T11:10:53;23.70;99.90
23347;DHT22;36852;45.466;11.066;2022-10-23T11:15:57;23.80;99.90
23347;DHT22;36852;45.466;11.066;2022-10-23T11:18:28;23.80;99.90
23347;DHT22;36852;45.466;11.066;2022-10-23T11:35:13;24.30;99.90
23347;DHT22;36852;45.466;11.066;2022-10-23T11:37:39;24.30;99.90
23347;DHT22;36852;45.466;11.066;2022-10-23T11:45:36;24.20;99.90
23347;DHT22;36852;45.466;11.066;2022-10-23T11:48:18;24.30;99.90
23347;DHT22;36852;45.466;11.066;2022-10-23T11:58:48;24.60;99.90
23347;DHT22;36852;45.466;11.066;2022-10-23T12:01:23;24.40;99.90
23347;DHT22;36852;45.466;11.066;2022-10-23T12:04:00;24.50;99.90
23347;DHT22;36852;45.466;11.066;2022-10-23T12:06:40;24.60;99.90
23347;DHT22;36852;45.466;11.066;2022-10-23T12:14:40;24.80;99.90
23347;DHT22;36852;45.466;11.066;2022-10-23T12:20:13;25.20;99.90
23347;DHT22;36852;45.466;11.066;2022-10-23T12:22:57;25.30;99.90
23347;DHT22;36852;45.466;11.066;2022-10-23T12:28:37;25.60;99.90
23347;DHT22;36852;45.466;11.066;2022-10-23T12:34:12;25.80;99.90
23347;DHT22;36852;45.466;11.066;2022-10-23T12:39:33;26.10;99.90
23347;DHT22;36852;45.466;11.066;2022-10-23T12:42:26;26.30;99.90
23347;DHT22;36852;45.466;11.066;2022-10-23T12:44:40;26.50;99.90
23347;DHT22;36852;45.466;11.066;2022-10-23T12:47:14;26.70;99.90
23347;DHT22;36852;45.466;11.066;2022-10-23T12:49:48;26.90;99.90
23347;DHT22;36852;45.466;11.066;2022-10-23T12:52:18;27.10;99.90
23347;DHT22;36852;45.466;11.066;2022-10-23T12:54:47;27.20;99.90
23347;DHT22;36852;45.466;11.066;2022-10-23T12:57:25;27.40;99.90
23347;DHT22;36852;45.466;11.066;2022-10-23T12:59:56;27.60;99.90
23347;DHT22;36852;45.466;11.066;2022-10-23T13:02:27;27.80;99.90
23347;DHT22;36852;45.466;11.066;2022-10-23T13:04:58;27.90;99.90
23347;DHT22;36852;45.466;11.066;2022-10-23T13:07:28;28.10;99.90
23347;DHT22;36852;45.466;11.066;2022-10-23T13:09:58;28.30;99.90
23347;DHT22;36852;45.466;11.066;2022-10-23T13:12:33;28.30;99.90
23347;DHT22;36852;45.466;11.066;2022-10-23T13:23:10;27.90;99.90
23347;DHT22;36852;45.466;11.066;2022-10-23T13:25:38;27.50;99.90
23347;DHT22;36852;45.466;11.066;2022-10-23T13:28:14;27.10;99.90
23347;DHT22;36852;45.466;11.066;2022-10-23T13:30:42;26.90;99.90
23347;DHT22;36852;45.466;11.066;2022-10-23T13:33:29;26.60;99.90
23347;DHT22;36852;45.466;11.066;2022-10-23T13:35:42;26.40;99.90
23347;DHT22;36852;45.466;11.066;2022-10-23T13:38:13;26.30;99.90
23347;DHT22;36852;45.466;11.066;2022-10-23T13:40:41;26.10;99.90
23347;DHT22;36852;45.466;11.066;2022-10-23T13:43:12;26.00;99.90
23347;DHT22;36852;45.466;11.066;2022-10-23T13:45:40;25.90;99.90
23347;DHT22;36852;45.466;11.066;2022-10-23T13:48:12;25.70;99.90
23347;DHT22;36852;45.466;11.066;2022-10-23T13:50:42;25.70;99.90
23347;DHT22;36852;45.466;11.066;2022-10-23T13:53:11;25.60;99.90
23347;DHT22;36852;45.466;11.066;2022-10-23T13:55:42;25.40;99.90
23347;DHT22;36852;45.466;11.066;2022-10-23T13:58:10;25.40;99.90
23347;DHT22;36852;45.466;11.066;2022-10-23T14:00:41;25.30;99.90
23347;DHT22;36852;45.466;11.066;2022-10-23T14:03:10;25.30;99.90
23347;DHT22;36852;45.466;11.066;2022-10-23T14:05:38;25.20;99.90
23347;DHT22;36852;45.466;11.066;2022-10-23T14:08:06;25.20;99.90
23347;DHT22;36852;45.466;11.066;2022-10-23T14:10:34;25.20;99.90
23347;DHT22;36852;45.466;11.066;2022-10-23T14:13:02;25.20;99.90
23347;DHT22;36852;45.466;11.066;2022-10-23T14:15:30;25.20;99.90
23347;DHT22;36852;45.466;11.066;2022-10-23T14:17:58;25.20;99.90
23347;DHT22;36852;45.466;11.066;2022-10-23T14:20:28;25.10;99.90
23347;DHT22;36852;45.466;11.066;2022-10-23T14:22:56;25.10;99.90
23347;DHT22;36852;45.466;11.066;2022-10-23T14:25:25;25.00;99.90
23347;DHT22;36852;45.466;11.066;2022-10-23T14:27:54;25.00;99.90
23347;DHT22;36852;45.466;11.066;2022-10-23T14:30:22;25.00;99.90
23347;DHT22;36852;45.466;11.066;2022-10-23T14:32:51;24.90;99.90
23347;DHT22;36852;45.466;11.066;2022-10-23T14:35:19;24.90;99.90
23347;DHT22;36852;45.466;11.066;2022-10-23T14:37:47;24.90;99.90
23347;DHT22;36852;45.466;11.066;2022-10-23T14:40:14;24.90;99.90
23347;DHT22;36852;45.466;11.066;2022-10-23T14:42:43;24.80;99.90
23347;DHT22;36852;45.466;11.066;2022-10-23T14:45:14;24.70;99.90
23347;DHT22;36852;45.466;11.066;2022-10-23T14:47:42;24.70;99.90
23347;DHT22;36852;45.466;11.066;2022-10-23T14:50:12;24.60;99.90
23347;DHT22;36852;45.466;11.066;2022-10-23T14:52:40;24.60;99.90
23347;DHT22;36852;45.466;11.066;2022-10-23T14:55:08;24.50;99.90
23347;DHT22;36852;45.466;11.066;2022-10-23T14:57:38;24.50;99.90
23347;DHT22;36852;45.466;11.066;2022-10-23T15:00:10;24.40;99.90
23347;DHT22;36852;45.466;11.066;2022-10-23T15:02:38;24.40;99.90
23347;DHT22;36852;45.466;11.066;2022-10-23T15:07:54;24.40;99.90
23347;DHT22;36852;45.466;11.066;2022-10-23T15:10:22;24.40;99.90
23347;DHT22;36852;45.466;11.066;2022-10-23T15:12:54;24.30;99.90
23347;DHT22;36852;45.466;11.066;2022-10-23T15:15:23;24.30;99.90
23347;DHT22;36852;45.466;11.066;2022-10-23T15:18:00;24.30;99.90
23347;DHT22;36852;45.466;11.066;2022-10-23T15:20:28;24.20;99.90
23347;DHT22;36852;45.466;11.066;2022-10-23T15:22:56;24.20;99.90
23347;DHT22;36852;45.466;11.066;2022-10-23T15:25:25;24.20;99.90
23347;DHT22;36852;45.466;11.066;2022-10-23T15:27:53;24.20;99.90
23347;DHT22;36852;45.466;11.066;2022-10-23T15:30:21;24.20;99.90
23347;DHT22;36852;45.466;11.066;2022-10-23T15:32:49;24.10;99.90
23347;DHT22;36852;45.466;11.066;2022-10-23T15:35:16;24.10;99.90
23347;DHT22;36852;45.466;11.066;2022-10-23T15:37:44;24.10;99.90
23347;DHT22;36852;45.466;11.066;2022-10-23T15:40:13;24.10;99.90
23347;DHT22;36852;45.466;11.066;2022-10-23T15:42:41;24.10;99.90
23347;DHT22;36852;45.466;11.066;2022-10-23T15:45:10;24.00;99.90
23347;DHT22;36852;45.466;11.066;2022-10-23T15:47:39;24.10;99.90
23347;DHT22;36852;45.466;11.066;2022-10-23T15:50:08;24.00;99.90
23347;DHT22;36852;45.466;11.066;2022-10-23T15:52:37;24.00;99.90
23347;DHT22;36852;45.466;11.066;2022-10-23T15:55:06;24.00;99.90
23347;DHT22;36852;45.466;11.066;2022-10-23T15:57:37;23.90;99.90
23347;DHT22;36852;45.466;11.066;2022-10-23T16:00:08;23.90;99.90
23347;DHT22;36852;45.466;11.066;2022-10-23T16:02:40;23.90;99.90
23347;DHT22;36852;45.466;11.066;2022-10-23T16:05:09;23.80;99.90
23347;DHT22;36852;45.466;11.066;2022-10-23T16:07:38;23.80;99.90
23347;DHT22;36852;45.466;11.066;2022-10-23T16:10:06;23.70;99.90
23347;DHT22;36852;45.466;11.066;2022-10-23T16:12:37;23.70;99.90
23347;DHT22;36852;45.466;11.066;2022-10-23T16:15:06;23.60;99.90
23347;DHT22;36852;45.466;11.066;2022-10-23T16:17:35;23.60;99.90
23347;DHT22;36852;45.466;11.066;2022-10-23T16:20:03;23.60;99.90
23347;DHT22;36852;45.466;11.066;2022-10-23T16:22:35;23.50;99.90
23347;DHT22;36852;45.466;11.066;2022-10-23T16:25:05;23.50;99.90
23347;DHT22;36852;45.466;11.066;2022-10-23T16:27:33;23.40;99.90
23347;DHT22;36852;45.466;11.066;2022-10-23T16:30:03;23.40;99.90
23347;DHT22;36852;45.466;11.066;2022-10-23T16:32:32;23.30;99.90
23347;DHT22;36852;45.466;11.066;2022-10-23T16:35:00;23.30;99.90
23347;DHT22;36852;45.466;11.066;2022-10-23T16:37:30;23.20;99.90
23347;DHT22;36852;45.466;11.066;2022-10-23T16:39:59;23.10;99.90
23347;DHT22;36852;45.466;11.066;2022-10-23T16:42:47;23.10;99.90
23347;DHT22;36852;45.466;11.066;2022-10-23T16:45:20;23.00;99.90
23347;DHT22;36852;45.466;11.066;2022-10-23T16:47:49;23.00;99.90
23347;DHT22;36852;45.466;11.066;2022-10-23T16:50:16;22.90;99.90
23347;DHT22;36852;45.466;11.066;2022-10-23T16:52:44;22.90;99.90
23347;DHT22;36852;45.466;11.066;2022-10-23T16:55:14;22.80;99.90
23347;DHT22;36852;45.466;11.066;2022-10-23T16:57:42;22.80;99.90
23347;DHT22;36852;45.466;11.066;2022-10-23T17:00:10;22.70;99.90
23347;DHT22;36852;45.466;11.066;2022-10-23T17:02:39;22.70;99.90
23347;DHT22;36852;45.466;11.066;2022-10-23T17:05:07;22.60;99.90
23347;DHT22;36852;45.466;11.066;2022-10-23T17:07:36;22.60;99.90
23347;DHT22;36852;45.466;11.066;2022-10-23T17:10:04;22.50;99.90
23347;DHT22;36852;45.466;11.066;2022-10-23T17:12:31;22.50;99.90
23347;DHT22;36852;45.466;11.066;2022-10-23T17:14:59;22.50;99.90
23347;DHT22;36852;45.466;11.066;2022-10-23T17:17:28;22.40;99.90
23347;DHT22;36852;45.466;11.066;2022-10-23T17:19:55;22.40;99.90
23347;DHT22;36852;45.466;11.066;2022-10-23T17:22:24;22.30;99.90
23347;DHT22;36852;45.466;11.066;2022-10-23T17:24:52;22.30;99.90
23347;DHT22;36852;45.466;11.066;2022-10-23T17:27:20;22.30;99.90
23347;DHT22;36852;45.466;11.066;2022-10-23T17:29:48;22.20;99.90
23347;DHT22;36852;45.466;11.066;2022-10-23T17:32:19;22.20;99.90
23347;DHT22;36852;45.466;11.066;2022-10-23T17:34:49;22.20;99.90
23347;DHT22;36852;45.466;11.066;2022-10-23T17:37:17;22.10;99.90